sensor_id;sensor_type;location;lat;lon;timestamp;P1;durP1;ratioP1;P2;durP2;ratioP2
79130;SDS011;68530;45.194;9.142;2023-04-01T00:01:58;14.88;;;9.35;;
79130;SDS011;68530;45.194;9.142;2023-04-01T00:04:23;13.43;;;8.88;;
79130;SDS011;68530;45.194;9.142;2023-04-01T00:06:48;13.38;;;9.90;;
79130;SDS011;68530;45.194;9.142;2023-04-01T00:09:14;17.65;;;11.05;;
79130;SDS011;68530;45.194;9.142;2023-04-01T00:11:40;19.50;;;12.10;;
79130;SDS011;68530;45.194;9.142;2023-04-01T00:14:05;18.17;;;12.15;;
79130;SDS011;68530;45.194;9.142;2023-04-01T00:16:32;19.17;;;13.10;;
79130;SDS011;68530;45.194;9.142;2023-04-01T00:18:57;19.65;;;13.40;;
79130;SDS011;68530;45.194;9.142;2023-04-01T00:21:22;19.38;;;13.70;;
79130;SDS011;68530;45.194;9.142;2023-04-01T00:23:49;21.73;;;13.98;;
79130;SDS011;68530;45.194;9.142;2023-04-01T00:26:14;20.20;;;14.15;;
79130;SDS011;68530;45.194;9.142;2023-04-01T00:28:44;19.17;;;13.35;;
79130;SDS011;68530;45.194;9.142;2023-04-01T00:31:09;23.52;;;13.85;;
79130;SDS011;68530;45.194;9.142;2023-04-01T00:33:35;22.67;;;14.10;;
79130;SDS011;68530;45.194;9.142;2023-04-01T00:36:20;20.17;;;13.57;;
79130;SDS011;68530;45.194;9.142;2023-04-01T00:38:46;17.80;;;13.80;;
79130;SDS011;68530;45.194;9.142;2023-04-01T00:41:12;21.83;;;13.73;;
79130;SDS011;68530;45.194;9.142;2023-04-01T00:43:40;17.98;;;13.07;;
79130;SDS011;68530;45.194;9.142;2023-04-01T00:46:07;18.85;;;12.93;;
79130;SDS011;68530;45.194;9.142;2023-04-01T00:48:33;19.52;;;12.63;;
79130;SDS011;68530;45.194;9.142;2023-04-01T00:51:07;17.15;;;12.55;;
79130;SDS011;68530;45.194;9.142;2023-04-01T00:53:38;17.55;;;12.70;;
79130;SDS011;68530;45.194;9.142;2023-04-01T00:56:21;18.15;;;12.68;;
79130;SDS011;68530;45.194;9.142;2023-04-01T00:58:53;19.60;;;12.85;;
79130;SDS011;68530;45.194;9.142;2023-04-01T01:01:22;18.48;;;12.55;;
79130;SDS011;68530;45.194;9.142;2023-04-01T01:03:49;16.58;;;11.00;;
79130;SDS011;68530;45.194;9.142;2023-04-01T01:11:43;17.23;;;11.70;;
79130;SDS011;68530;45.194;9.142;2023-04-01T01:16:44;17.50;;;11.90;;
79130;SDS011;68530;45.194;9.142;2023-04-01T01:19:42;16.92;;;11.60;;
79130;SDS011;68530;45.194;9.142;2023-04-01T01:27:36;19.15;;;12.00;;
79130;SDS011;68530;45.194;9.142;2023-04-01T01:33:01;16.73;;;11.68;;
79130;SDS011;68530;45.194;9.142;2023-04-01T01:35:46;16.55;;;12.20;;
79130;SDS011;68530;45.194;9.142;2023-04-01T01:38:19;22.23;;;12.57;;
79130;SDS011;68530;45.194;9.142;2023-04-01T01:40:48;19.48;;;11.88;;
79130;SDS011;68530;45.194;9.142;2023-04-01T01:43:19;18.95;;;12.02;;
79130;SDS011;68530;45.194;9.142;2023-04-01T01:45:48;18.77;;;12.05;;
79130;SDS011;68530;45.194;9.142;2023-04-01T01:48:19;18.40;;;12.48;;
79130;SDS011;68530;45.194;9.142;2023-04-01T01:50:45;18.88;;;12.55;;
79130;SDS011;68530;45.194;9.142;2023-04-01T01:53:12;18.60;;;12.40;;
79130;SDS011;68530;45.194;9.142;2023-04-01T01:55:39;18.08;;;12.73;;
79130;SDS011;68530;45.194;9.142;2023-04-01T01:58:11;20.52;;;13.25;;
79130;SDS011;68530;45.194;9.142;2023-04-01T02:00:37;17.98;;;12.75;;
79130;SDS011;68530;45.194;9.142;2023-04-01T02:03:03;19.63;;;13.32;;
79130;SDS011;68530;45.194;9.142;2023-04-01T02:05:29;18.77;;;12.35;;
79130;SDS011;68530;45.194;9.142;2023-04-01T02:08:06;23.35;;;14.55;;
79130;SDS011;68530;45.194;9.142;2023-04-01T02:10:37;18.27;;;13.45;;
79130;SDS011;68530;45.194;9.142;2023-04-01T02:15:44;19.88;;;13.52;;
79130;SDS011;68530;45.194;9.142;2023-04-01T02:18:13;23.40;;;15.70;;
79130;SDS011;68530;45.194;9.142;2023-04-01T02:20:41;25.00;;;15.50;;
79130;SDS011;68530;45.194;9.142;2023-04-01T02:23:07;25.52;;;16.38;;
79130;SDS011;68530;45.194;9.142;2023-04-01T02:25:36;25.55;;;16.42;;
79130;SDS011;68530;45.194;9.142;2023-04-01T02:28:04;27.10;;;16.38;;
79130;SDS011;68530;45.194;9.142;2023-04-01T02:30:31;27.80;;;17.17;;
79130;SDS011;68530;45.194;9.142;2023-04-01T02:32:59;25.48;;;16.30;;
79130;SDS011;68530;45.194;9.142;2023-04-01T02:35:26;27.63;;;16.98;;
79130;SDS011;68530;45.194;9.142;2023-04-01T02:37:52;28.33;;;16.02;;
79130;SDS011;68530;45.194;9.142;2023-04-01T02:40:18;24.33;;;15.43;;
79130;SDS011;68530;45.194;9.142;2023-04-01T02:42:44;22.08;;;14.88;;
79130;SDS011;68530;45.194;9.142;2023-04-01T02:45:11;23.02;;;14.63;;
79130;SDS011;68530;45.194;9.142;2023-04-01T02:47:37;26.55;;;14.23;;
79130;SDS011;68530;45.194;9.142;2023-04-01T02:50:03;19.48;;;12.45;;
79130;SDS011;68530;45.194;9.142;2023-04-01T02:52:29;18.38;;;11.82;;
79130;SDS011;68530;45.194;9.142;2023-04-01T02:54:55;20.75;;;11.75;;
79130;SDS011;68530;45.194;9.142;2023-04-01T02:57:22;18.77;;;11.68;;
79130;SDS011;68530;45.194;9.142;2023-04-01T02:59:47;22.08;;;11.75;;
79130;SDS011;68530;45.194;9.142;2023-04-01T03:02:13;20.55;;;13.65;;
79130;SDS011;68530;45.194;9.142;2023-04-01T03:04:40;19.77;;;12.27;;
79130;SDS011;68530;45.194;9.142;2023-04-01T03:07:05;19.33;;;12.90;;
79130;SDS011;68530;45.194;9.142;2023-04-01T03:09:31;18.20;;;12.55;;
79130;SDS011;68530;45.194;9.142;2023-04-01T03:11:56;20.67;;;12.68;;
79130;SDS011;68530;45.194;9.142;2023-04-01T03:14:21;23.25;;;11.63;;
79130;SDS011;68530;45.194;9.142;2023-04-01T03:16:47;20.15;;;13.00;;
79130;SDS011;68530;45.194;9.142;2023-04-01T03:19:12;21.25;;;11.60;;
79130;SDS011;68530;45.194;9.142;2023-04-01T03:21:38;20.38;;;11.82;;
79130;SDS011;68530;45.194;9.142;2023-04-01T03:24:03;17.98;;;11.90;;
79130;SDS011;68530;45.194;9.142;2023-04-01T03:26:29;17.75;;;11.20;;
79130;SDS011;68530;45.194;9.142;2023-04-01T03:28:55;16.08;;;10.27;;
79130;SDS011;68530;45.194;9.142;2023-04-01T03:31:21;19.17;;;10.15;;
79130;SDS011;68530;45.194;9.142;2023-04-01T03:33:46;13.15;;;9.45;;
79130;SDS011;68530;45.194;9.142;2023-04-01T03:36:12;15.52;;;9.57;;
79130;SDS011;68530;45.194;9.142;2023-04-01T03:38:38;13.63;;;8.70;;
79130;SDS011;68530;45.194;9.142;2023-04-01T03:41:05;14.05;;;7.97;;
79130;SDS011;68530;45.194;9.142;2023-04-01T03:43:31;12.65;;;7.75;;
79130;SDS011;68530;45.194;9.142;2023-04-01T03:45:57;11.98;;;7.30;;
79130;SDS011;68530;45.194;9.142;2023-04-01T03:48:23;12.15;;;7.13;;
79130;SDS011;68530;45.194;9.142;2023-04-01T03:50:48;11.27;;;6.88;;
79130;SDS011;68530;45.194;9.142;2023-04-01T03:53:14;10.95;;;5.97;;
79130;SDS011;68530;45.194;9.142;2023-04-01T03:55:40;9.73;;;6.78;;
79130;SDS011;68530;45.194;9.142;2023-04-01T03:58:06;10.05;;;6.03;;
79130;SDS011;68530;45.194;9.142;2023-04-01T04:00:32;10.25;;;5.90;;
79130;SDS011;68530;45.194;9.142;2023-04-01T04:02:58;11.68;;;5.88;;
79130;SDS011;68530;45.194;9.142;2023-04-01T04:05:23;10.30;;;5.55;;
79130;SDS011;68530;45.194;9.142;2023-04-01T04:07:50;8.32;;;4.90;;
79130;SDS011;68530;45.194;9.142;2023-04-01T04:10:15;12.30;;;5.93;;
79130;SDS011;68530;45.194;9.142;2023-04-01T04:12:41;8.18;;;5.35;;
79130;SDS011;68530;45.194;9.142;2023-04-01T04:15:07;16.90;;;7.97;;
79130;SDS011;68530;45.194;9.142;2023-04-01T04:17:33;12.43;;;8.85;;
79130;SDS011;68530;45.194;9.142;2023-04-01T04:19:58;14.18;;;8.70;;
79130;SDS011;68530;45.194;9.142;2023-04-01T04:22:24;14.93;;;9.90;;
79130;SDS011;68530;45.194;9.142;2023-04-01T04:24:49;17.83;;;10.52;;
79130;SDS011;68530;45.194;9.142;2023-04-01T04:27:14;14.93;;;9.77;;
79130;SDS011;68530;45.194;9.142;2023-04-01T04:29:40;15.60;;;10.32;;
79130;SDS011;68530;45.194;9.142;2023-04-01T04:32:05;14.50;;;9.75;;
79130;SDS011;68530;45.194;9.142;2023-04-01T04:34:31;14.57;;;9.38;;
79130;SDS011;68530;45.194;9.142;2023-04-01T04:36:56;16.77;;;10.07;;
79130;SDS011;68530;45.194;9.142;2023-04-01T04:39:22;14.93;;;9.65;;
79130;SDS011;68530;45.194;9.142;2023-04-01T04:41:47;16.45;;;9.77;;
79130;SDS011;68530;45.194;9.142;2023-04-01T04:44:13;16.52;;;9.70;;
79130;SDS011;68530;45.194;9.142;2023-04-01T04:46:38;17.55;;;9.82;;
79130;SDS011;68530;45.194;9.142;2023-04-01T04:49:04;16.42;;;9.77;;
79130;SDS011;68530;45.194;9.142;2023-04-01T04:51:30;17.85;;;10.82;;
79130;SDS011;68530;45.194;9.142;2023-04-01T04:53:55;18.00;;;10.85;;
79130;SDS011;68530;45.194;9.142;2023-04-01T04:56:21;17.33;;;10.45;;
79130;SDS011;68530;45.194;9.142;2023-04-01T04:58:47;20.75;;;11.05;;
79130;SDS011;68530;45.194;9.142;2023-04-01T05:01:14;18.42;;;11.27;;
79130;SDS011;68530;45.194;9.142;2023-04-01T05:03:41;17.15;;;10.98;;
79130;SDS011;68530;45.194;9.142;2023-04-01T05:06:07;16.60;;;10.65;;
79130;SDS011;68530;45.194;9.142;2023-04-01T05:08:34;20.02;;;11.93;;
79130;SDS011;68530;45.194;9.142;2023-04-01T05:11:00;18.23;;;10.43;;
79130;SDS011;68530;45.194;9.142;2023-04-01T05:13:26;17.13;;;10.60;;
79130;SDS011;68530;45.194;9.142;2023-04-01T05:15:52;17.88;;;10.25;;
79130;SDS011;68530;45.194;9.142;2023-04-01T05:18:17;14.45;;;10.35;;
79130;SDS011;68530;45.194;9.142;2023-04-01T05:20:49;17.55;;;11.05;;
79130;SDS011;68530;45.194;9.142;2023-04-01T05:23:17;16.15;;;10.93;;
79130;SDS011;68530;45.194;9.142;2023-04-01T05:25:43;15.48;;;10.23;;
79130;SDS011;68530;45.194;9.142;2023-04-01T05:28:09;15.30;;;10.00;;
79130;SDS011;68530;45.194;9.142;2023-04-01T05:30:35;14.80;;;9.52;;
79130;SDS011;68530;45.194;9.142;2023-04-01T05:33:00;18.45;;;9.93;;
79130;SDS011;68530;45.194;9.142;2023-04-01T05:35:26;14.02;;;9.23;;
79130;SDS011;68530;45.194;9.142;2023-04-01T05:37:51;16.77;;;10.15;;
79130;SDS011;68530;45.194;9.142;2023-04-01T05:40:16;16.48;;;9.02;;
79130;SDS011;68530;45.194;9.142;2023-04-01T05:42:42;13.38;;;9.52;;
79130;SDS011;68530;45.194;9.142;2023-04-01T05:45:07;13.70;;;9.32;;
79130;SDS011;68530;45.194;9.142;2023-04-01T05:47:33;14.68;;;9.10;;
79130;SDS011;68530;45.194;9.142;2023-04-01T05:49:59;13.57;;;7.65;;
79130;SDS011;68530;45.194;9.142;2023-04-01T05:52:24;11.30;;;7.43;;
79130;SDS011;68530;45.194;9.142;2023-04-01T05:54:50;13.27;;;7.55;;
79130;SDS011;68530;45.194;9.142;2023-04-01T05:57:16;12.00;;;7.43;;
79130;SDS011;68530;45.194;9.142;2023-04-01T05:59:41;9.88;;;6.35;;
79130;SDS011;68530;45.194;9.142;2023-04-01T06:02:08;11.63;;;5.97;;
79130;SDS011;68530;45.194;9.142;2023-04-01T06:04:37;9.38;;;5.50;;
79130;SDS011;68530;45.194;9.142;2023-04-01T06:07:17;9.15;;;5.18;;
79130;SDS011;68530;45.194;9.142;2023-04-01T06:09:43;10.50;;;5.45;;
79130;SDS011;68530;45.194;9.142;2023-04-01T06:12:20;7.82;;;5.20;;
79130;SDS011;68530;45.194;9.142;2023-04-01T06:15:09;8.13;;;4.40;;
79130;SDS011;68530;45.194;9.142;2023-04-01T06:25:53;7.90;;;4.63;;
79130;SDS011;68530;45.194;9.142;2023-04-01T06:42:31;8.40;;;4.75;;
79130;SDS011;68530;45.194;9.142;2023-04-01T06:45:25;7.18;;;4.07;;
79130;SDS011;68530;45.194;9.142;2023-04-01T06:48:02;6.18;;;4.45;;
79130;SDS011;68530;45.194;9.142;2023-04-01T06:53:10;7.57;;;4.75;;
79130;SDS011;68530;45.194;9.142;2023-04-01T06:55:38;10.18;;;4.82;;
79130;SDS011;68530;45.194;9.142;2023-04-01T06:58:18;10.05;;;5.20;;
79130;SDS011;68530;45.194;9.142;2023-04-01T07:00:46;8.75;;;5.38;;
79130;SDS011;68530;45.194;9.142;2023-04-01T07:06:25;8.23;;;5.50;;
79130;SDS011;68530;45.194;9.142;2023-04-01T07:08:55;9.43;;;5.30;;
79130;SDS011;68530;45.194;9.142;2023-04-01T07:11:29;10.52;;;5.93;;
79130;SDS011;68530;45.194;9.142;2023-04-01T07:17:00;10.05;;;6.22;;
79130;SDS011;68530;45.194;9.142;2023-04-01T07:19:42;9.77;;;5.72;;
79130;SDS011;68530;45.194;9.142;2023-04-01T07:24:49;13.48;;;6.85;;
79130;SDS011;68530;45.194;9.142;2023-04-01T07:27:15;12.68;;;6.57;;
79130;SDS011;68530;45.194;9.142;2023-04-01T07:29:41;10.80;;;7.15;;
79130;SDS011;68530;45.194;9.142;2023-04-01T07:38:07;12.48;;;7.70;;
79130;SDS011;68530;45.194;9.142;2023-04-01T07:43:16;45.45;;;11.48;;
79130;SDS011;68530;45.194;9.142;2023-04-01T07:52:06;15.27;;;9.40;;
79130;SDS011;68530;45.194;9.142;2023-04-01T07:54:21;16.20;;;9.35;;
79130;SDS011;68530;45.194;9.142;2023-04-01T07:57:03;17.23;;;10.38;;
79130;SDS011;68530;45.194;9.142;2023-04-01T08:10:22;14.57;;;9.65;;
79130;SDS011;68530;45.194;9.142;2023-04-01T08:13:20;15.10;;;8.05;;
79130;SDS011;68530;45.194;9.142;2023-04-01T08:16:06;10.48;;;6.97;;
79130;SDS011;68530;45.194;9.142;2023-04-01T08:21:18;11.18;;;7.07;;
79130;SDS011;68530;45.194;9.142;2023-04-01T08:23:47;9.73;;;5.75;;
79130;SDS011;68530;45.194;9.142;2023-04-01T08:29:00;9.05;;;5.40;;
79130;SDS011;68530;45.194;9.142;2023-04-01T08:34:29;11.13;;;5.90;;
79130;SDS011;68530;45.194;9.142;2023-04-01T08:37:11;12.68;;;4.85;;
79130;SDS011;68530;45.194;9.142;2023-04-01T08:39:53;15.13;;;5.13;;
79130;SDS011;68530;45.194;9.142;2023-04-01T08:53:15;7.43;;;4.63;;
79130;SDS011;68530;45.194;9.142;2023-04-01T08:56:01;6.40;;;4.70;;
79130;SDS011;68530;45.194;9.142;2023-04-01T09:12:46;7.30;;;3.90;;
79130;SDS011;68530;45.194;9.142;2023-04-01T09:17:57;5.47;;;3.10;;
79130;SDS011;68530;45.194;9.142;2023-04-01T09:26:21;6.65;;;3.40;;
79130;SDS011;68530;45.194;9.142;2023-04-01T09:37:27;5.97;;;3.20;;
79130;SDS011;68530;45.194;9.142;2023-04-01T10:25:05;3.60;;;2.10;;
79130;SDS011;68530;45.194;9.142;2023-04-01T10:50:25;4.22;;;2.55;;
79130;SDS011;68530;45.194;9.142;2023-04-01T11:40:45;6.15;;;2.00;;
79130;SDS011;68530;45.194;9.142;2023-04-01T11:46:11;4.38;;;2.10;;
79130;SDS011;68530;45.194;9.142;2023-04-01T11:51:50;6.05;;;1.92;;
79130;SDS011;68530;45.194;9.142;2023-04-01T11:54:22;3.78;;;1.60;;
79130;SDS011;68530;45.194;9.142;2023-04-01T12:08:01;2.90;;;1.55;;
79130;SDS011;68530;45.194;9.142;2023-04-01T12:23:03;2.28;;;1.20;;
79130;SDS011;68530;45.194;9.142;2023-04-01T12:28:24;3.38;;;1.30;;
79130;SDS011;68530;45.194;9.142;2023-04-01T12:36:42;2.50;;;1.00;;
79130;SDS011;68530;45.194;9.142;2023-04-01T12:39:33;2.15;;;1.00;;
79130;SDS011;68530;45.194;9.142;2023-04-01T12:55:38;1.75;;;0.90;;
79130;SDS011;68530;45.194;9.142;2023-04-01T13:14:43;2.05;;;0.80;;
79130;SDS011;68530;45.194;9.142;2023-04-01T13:28:58;1.20;;;0.70;;
79130;SDS011;68530;45.194;9.142;2023-04-01T13:36:47;1.40;;;0.70;;
79130;SDS011;68530;45.194;9.142;2023-04-01T13:39:25;1.58;;;0.70;;
79130;SDS011;68530;45.194;9.142;2023-04-01T13:44:50;1.95;;;0.73;;
79130;SDS011;68530;45.194;9.142;2023-04-01T13:55:58;1.98;;;0.63;;
79130;SDS011;68530;45.194;9.142;2023-04-01T14:06:50;0.52;;;0.50;;
79130;SDS011;68530;45.194;9.142;2023-04-01T14:14:58;0.80;;;0.50;;
79130;SDS011;68530;45.194;9.142;2023-04-01T14:18:03;2.30;;;0.70;;
79130;SDS011;68530;45.194;9.142;2023-04-01T14:23:27;1.30;;;0.70;;
79130;SDS011;68530;45.194;9.142;2023-04-01T14:40:47;1.45;;;0.60;;
79130;SDS011;68530;45.194;9.142;2023-04-01T14:49:00;1.45;;;0.50;;
79130;SDS011;68530;45.194;9.142;2023-04-01T14:51:31;1.08;;;0.60;;
79130;SDS011;68530;45.194;9.142;2023-04-01T14:56:36;0.93;;;0.50;;
79130;SDS011;68530;45.194;9.142;2023-04-01T14:59:08;2.03;;;0.60;;
79130;SDS011;68530;45.194;9.142;2023-04-01T15:02:09;0.95;;;0.63;;
79130;SDS011;68530;45.194;9.142;2023-04-01T15:10:17;1.38;;;0.50;;
79130;SDS011;68530;45.194;9.142;2023-04-01T15:16:03;1.20;;;0.60;;
79130;SDS011;68530;45.194;9.142;2023-04-01T15:31:52;0.98;;;0.60;;
79130;SDS011;68530;45.194;9.142;2023-04-01T15:34:43;0.70;;;0.63;;
79130;SDS011;68530;45.194;9.142;2023-04-01T15:42:31;1.48;;;0.70;;
79130;SDS011;68530;45.194;9.142;2023-04-01T15:45:08;1.90;;;0.80;;
79130;SDS011;68530;45.194;9.142;2023-04-01T15:56:36;2.22;;;0.60;;
79130;SDS011;68530;45.194;9.142;2023-04-01T16:15:28;1.50;;;0.70;;
79130;SDS011;68530;45.194;9.142;2023-04-01T16:18:17;1.48;;;0.52;;
79130;SDS011;68530;45.194;9.142;2023-04-01T16:26:39;1.20;;;0.60;;
79130;SDS011;68530;45.194;9.142;2023-04-01T16:32:21;0.60;;;0.57;;
79130;SDS011;68530;45.194;9.142;2023-04-01T16:41:04;2.53;;;0.60;;
79130;SDS011;68530;45.194;9.142;2023-04-01T16:43:50;1.30;;;0.60;;
79130;SDS011;68530;45.194;9.142;2023-04-01T16:46:38;0.80;;;0.60;;
79130;SDS011;68530;45.194;9.142;2023-04-01T16:54:17;1.75;;;0.50;;
79130;SDS011;68530;45.194;9.142;2023-04-01T16:56:54;1.70;;;0.50;;
79130;SDS011;68530;45.194;9.142;2023-04-01T16:59:36;2.10;;;0.80;;
79130;SDS011;68530;45.194;9.142;2023-04-01T17:04:47;2.05;;;0.60;;
79130;SDS011;68530;45.194;9.142;2023-04-01T17:10:14;2.08;;;0.80;;
79130;SDS011;68530;45.194;9.142;2023-04-01T17:15:21;1.65;;;0.68;;
79130;SDS011;68530;45.194;9.142;2023-04-01T17:28:48;2.33;;;0.73;;
79130;SDS011;68530;45.194;9.142;2023-04-01T17:36:31;1.75;;;0.70;;
79130;SDS011;68530;45.194;9.142;2023-04-01T17:39:11;3.17;;;1.00;;
79130;SDS011;68530;45.194;9.142;2023-04-01T17:41:56;3.95;;;1.00;;
79130;SDS011;68530;45.194;9.142;2023-04-01T17:58:21;1.90;;;0.88;;
79130;SDS011;68530;45.194;9.142;2023-04-01T18:01:03;3.30;;;1.00;;
79130;SDS011;68530;45.194;9.142;2023-04-01T18:06:47;2.05;;;0.77;;
79130;SDS011;68530;45.194;9.142;2023-04-01T18:12:31;5.78;;;2.10;;
79130;SDS011;68530;45.194;9.142;2023-04-01T18:23:09;2.47;;;1.00;;
79130;SDS011;68530;45.194;9.142;2023-04-01T18:25:43;2.85;;;1.00;;
79130;SDS011;68530;45.194;9.142;2023-04-01T18:31:09;3.67;;;1.10;;
79130;SDS011;68530;45.194;9.142;2023-04-01T18:33:46;3.17;;;1.20;;
79130;SDS011;68530;45.194;9.142;2023-04-01T18:36:24;3.63;;;0.90;;
79130;SDS011;68530;45.194;9.142;2023-04-01T18:47:44;2.08;;;0.93;;
79130;SDS011;68530;45.194;9.142;2023-04-01T18:50:24;4.57;;;1.20;;
79130;SDS011;68530;45.194;9.142;2023-04-01T18:53:17;4.90;;;1.30;;
79130;SDS011;68530;45.194;9.142;2023-04-01T18:55:54;3.85;;;1.33;;
79130;SDS011;68530;45.194;9.142;2023-04-01T19:03:31;5.95;;;1.90;;
79130;SDS011;68530;45.194;9.142;2023-04-01T19:06:08;4.15;;;1.88;;
79130;SDS011;68530;45.194;9.142;2023-04-01T19:08:42;3.13;;;1.60;;
79130;SDS011;68530;45.194;9.142;2023-04-01T19:16:54;4.70;;;1.80;;
79130;SDS011;68530;45.194;9.142;2023-04-01T19:22:22;4.18;;;2.00;;
79130;SDS011;68530;45.194;9.142;2023-04-01T19:30:30;2.92;;;1.63;;
79130;SDS011;68530;45.194;9.142;2023-04-01T19:38:28;3.88;;;2.00;;
79130;SDS011;68530;45.194;9.142;2023-04-01T19:46:29;3.05;;;1.65;;
79130;SDS011;68530;45.194;9.142;2023-04-01T19:59:41;3.83;;;1.83;;
79130;SDS011;68530;45.194;9.142;2023-04-01T20:04:50;3.85;;;2.15;;
79130;SDS011;68530;45.194;9.142;2023-04-01T20:13:15;4.43;;;1.77;;
79130;SDS011;68530;45.194;9.142;2023-04-01T20:15:44;4.43;;;1.60;;
79130;SDS011;68530;45.194;9.142;2023-04-01T20:18:19;4.47;;;1.80;;
79130;SDS011;68530;45.194;9.142;2023-04-01T20:23:38;3.40;;;1.30;;
79130;SDS011;68530;45.194;9.142;2023-04-01T20:26:08;2.50;;;1.20;;
79130;SDS011;68530;45.194;9.142;2023-04-01T20:29:02;2.65;;;1.30;;
79130;SDS011;68530;45.194;9.142;2023-04-01T20:31:40;2.90;;;1.30;;
79130;SDS011;68530;45.194;9.142;2023-04-01T20:40:20;2.75;;;1.25;;
79130;SDS011;68530;45.194;9.142;2023-04-01T20:43:35;3.70;;;1.45;;
79130;SDS011;68530;45.194;9.142;2023-04-01T20:52:16;3.45;;;1.35;;
79130;SDS011;68530;45.194;9.142;2023-04-01T20:54:59;3.30;;;1.30;;
79130;SDS011;68530;45.194;9.142;2023-04-01T21:11:00;3.58;;;1.90;;
79130;SDS011;68530;45.194;9.142;2023-04-01T21:19:15;4.47;;;2.45;;
79130;SDS011;68530;45.194;9.142;2023-04-01T21:24:34;4.70;;;2.28;;
79130;SDS011;68530;45.194;9.142;2023-04-01T21:41:14;3.30;;;1.20;;
79130;SDS011;68530;45.194;9.142;2023-04-01T22:06:46;3.28;;;1.30;;
79130;SDS011;68530;45.194;9.142;2023-04-01T22:12:02;3.03;;;1.30;;
79130;SDS011;68530;45.194;9.142;2023-04-01T22:25:37;3.07;;;1.33;;
79130;SDS011;68530;45.194;9.142;2023-04-01T22:28:19;2.50;;;1.30;;
79130;SDS011;68530;45.194;9.142;2023-04-01T22:30:54;3.58;;;1.30;;
79130;SDS011;68530;45.194;9.142;2023-04-01T22:36:37;3.15;;;1.40;;
79130;SDS011;68530;45.194;9.142;2023-04-01T22:47:22;3.25;;;1.25;;
79130;SDS011;68530;45.194;9.142;2023-04-01T22:52:28;4.03;;;1.30;;
79130;SDS011;68530;45.194;9.142;2023-04-01T22:55:10;3.03;;;1.40;;
79130;SDS011;68530;45.194;9.142;2023-04-01T23:00:57;4.85;;;1.55;;
79130;SDS011;68530;45.194;9.142;2023-04-01T23:03:36;3.58;;;1.38;;
79130;SDS011;68530;45.194;9.142;2023-04-01T23:06:06;4.00;;;1.70;;
79130;SDS011;68530;45.194;9.142;2023-04-01T23:19:35;5.05;;;1.30;;
79130;SDS011;68530;45.194;9.142;2023-04-01T23:24:53;4.50;;;1.60;;
79130;SDS011;68530;45.194;9.142;2023-04-01T23:27:28;4.40;;;1.50;;
79130;SDS011;68530;45.194;9.142;2023-04-01T23:30:02;3.75;;;1.20;;
79130;SDS011;68530;45.194;9.142;2023-04-01T23:32:28;4.22;;;1.50;;
79130;SDS011;68530;45.194;9.142;2023-04-01T23:34:54;5.53;;;1.35;;
79130;SDS011;68530;45.194;9.142;2023-04-01T23:37:23;3.70;;;1.65;;
79130;SDS011;68530;45.194;9.142;2023-04-01T23:39:53;4.28;;;1.40;;
79130;SDS011;68530;45.194;9.142;2023-04-01T23:42:31;3.13;;;1.20;;
79130;SDS011;68530;45.194;9.142;2023-04-01T23:45:05;3.63;;;1.20;;
79130;SDS011;68530;45.194;9.142;2023-04-01T23:47:38;3.75;;;1.40;;
79130;SDS011;68530;45.194;9.142;2023-04-01T23:50:12;3.53;;;1.38;;
79130;SDS011;68530;45.194;9.142;2023-04-01T23:53:01;5.15;;;1.33;;
79130;SDS011;68530;45.194;9.142;2023-04-01T23:55:33;3.08;;;1.45;;
